Kezdőlap
METAR-TAF:

METAR-TAF

Repülőterek :

Kastamonu, Törökország

földrajzi szélesség: 41-19-01N, földrajzi hosszúság: 33-47-46E, magasság: 1073 m

METAR: hiányzik

Idő: 23:26 (20:26 UTC)

Előrejelzés

A jelentés 6 órával és 46 perccel ezelõtt készült, 13:40 UTC
Az előrejelzés 22-én 15 óra UTC és 22-én 24 óra UTC között érvényes
Különbözõ irányokból fújó szél 2 kt
Látótávolság: 4000 m
Szórványos felhőzet 600 lábon
Szakadozott felhőzet 2500 lábon
Párásság

TAF: LTAL 221340Z 2215/2224 VRB02KT 4000 BR SCT006 BKN025

Meteorológiai megfigyelések és előrejelzések több, mint 4000 repülőtéren (METAR és TAF jelentéseket).

A térképen piros és sárga pontok jelzik az elérhető meteorológiai állomásokat.

Mozgassa az egeret a pont fölött, hogy megjelenjen az állomás neve.

Azután kattintson az időjárási megfigyelések és előrejelzések megtekintéséhez.

A térkép megváltoztatása: kattintson a fekete keresztel jelölt zöld gombra ráközelítéshez, a vonallal jelölt zöld gombra távolításhoz, vagy a zöld nyilakra a szomszédos térképek eléréséhez.


METAR-TAF: